Terminal Aerodrome Forecast
Issued by NWS

Home | Current Version | Previous Version | Text Only | Print | Product List | Glossary On
Versions: 1 2 3 4 5 6 7 8 9 10 11 12 13
843
FTUS46 KSTO 191728
TAFMHR
TAF
KMHR 191728Z 1918/2018 17010KT P6SM OVC050
     FM200000 18010G15KT P6SM VCSH OVC050
     FM200600 20010G15KT P6SM -RA OVC050
     FM201000 15008KT P6SM BKN100=

USA.gov is the U.S. government's official web portal to all federal, state and local government web resources and services.